createdAt,value
2022-11-17T00:02:14.370Z,97754.09
2022-11-17T00:04:43.230Z,97762.13
2022-11-17T00:07:11.865Z,97766.41
2022-11-17T00:09:43.647Z,97767.22
2022-11-17T00:12:43.211Z,97768.19
2022-11-17T00:15:12.857Z,97768.03
2022-11-17T00:18:16.416Z,97777.06
2022-11-17T00:21:12.478Z,97786.75
2022-11-17T00:23:52.079Z,97785.59
2022-11-17T00:26:23.016Z,97786.56
2022-11-17T00:28:55.352Z,97784.13
2022-11-17T00:31:50.113Z,97785.94
2022-11-17T00:34:29.246Z,97780.84
2022-11-17T00:37:01.721Z,97783.31
2022-11-17T00:39:34.047Z,97783.31
2022-11-17T00:42:03.712Z,97788.72
2022-11-17T00:44:40.767Z,97786.94
2022-11-17T00:47:10.551Z,97786.75
2022-11-17T00:49:41.908Z,97793.78
2022-11-17T00:52:11.818Z,97789.72
2022-11-17T00:54:40.427Z,97796.56
2022-11-17T00:57:09.048Z,97797.41
2022-11-17T00:59:37.987Z,97793.13
2022-11-17T01:02:06.627Z,97798.72
2022-11-17T01:04:35.268Z,97797.25
2022-11-17T01:07:05.456Z,97795.47
2022-11-17T01:09:34.179Z,97793.66
2022-11-17T01:12:02.847Z,97790.25
2022-11-17T01:14:32.916Z,97792.69
2022-11-17T01:17:07.697Z,97792.69
2022-11-17T01:19:36.338Z,97798.91
2022-11-17T01:22:07.088Z,97796.44
2022-11-17T01:24:35.688Z,97802.84
2022-11-17T01:27:04.248Z,97800.06
2022-11-17T01:29:33.116Z,97800.06
2022-11-17T01:32:01.768Z,97800.22
2022-11-17T01:34:30.397Z,97803.03
2022-11-17T01:37:16.286Z,97805.47
2022-11-17T01:39:46.568Z,97807.28
2022-11-17T01:42:17.786Z,97802.22
2022-11-17T01:44:58.456Z,97801.41
2022-11-17T01:47:33.236Z,97803.19
2022-11-17T01:50:06.236Z,97806.00
2022-11-17T01:52:38.729Z,97803.38
2022-11-17T01:55:11.546Z,97812.88
2022-11-17T01:57:45.279Z,97808.63
2022-11-17T02:00:14.756Z,97810.44
2022-11-17T02:02:45.238Z,97815.50
2022-11-17T02:05:24.866Z,97813.22
2022-11-17T02:07:56.297Z,97819.28
2022-11-17T02:10:26.241Z,97821.06
2022-11-17T02:12:55.348Z,97828.13
2022-11-17T02:15:24.537Z,97831.75
2022-11-17T02:17:54.435Z,97832.38
2022-11-17T02:20:37.066Z,97838.63
2022-11-17T02:23:49.537Z,97838.81
2022-11-17T02:27:05.475Z,97843.25
2022-11-17T02:29:43.405Z,97833.72
2022-11-17T02:32:18.736Z,97840.78
2022-11-17T02:34:50.605Z,97836.53
2022-11-17T02:37:25.455Z,97843.56
2022-11-17T02:40:00.677Z,97844.53
2022-11-17T02:42:53.380Z,97842.72
2022-11-17T02:45:27.325Z,97840.28
2022-11-17T02:47:59.575Z,97847.97
2022-11-17T02:50:31.144Z,97856.84
2022-11-17T02:53:00.025Z,97850.94
2022-11-17T02:55:33.365Z,97845.69
2022-11-17T02:58:01.925Z,97849.16
2022-11-17T03:00:36.407Z,97851.13
2022-11-17T03:03:25.175Z,97850.31
2022-11-17T03:06:00.813Z,97856.53
2022-11-17T03:08:39.584Z,97854.91
2022-11-17T03:11:09.845Z,97856.53
2022-11-17T03:13:50.905Z,97859.00
2022-11-17T03:16:29.861Z,97855.72
2022-11-17T03:19:07.723Z,97853.28
2022-11-17T03:21:42.584Z,97858.50
2022-11-17T03:24:17.804Z,97853.09
2022-11-17T03:26:50.264Z,97857.69
2022-11-17T03:29:22.503Z,97863.91
2022-11-17T03:31:59.157Z,97863.09
2022-11-17T03:34:33.445Z,97870.97
2022-11-17T03:37:07.024Z,97871.97
2022-11-17T03:39:37.573Z,97875.56
2022-11-17T03:42:11.395Z,97870.34
2022-11-17T03:44:43.004Z,97867.88
2022-11-17T03:47:15.400Z,97870.66
2022-11-17T03:49:49.114Z,97875.25
2022-11-17T03:52:17.923Z,97874.25
2022-11-17T03:54:46.564Z,97865.09
2022-11-17T03:57:21.204Z,97882.44
2022-11-17T03:59:57.255Z,97884.44
2022-11-17T04:02:28.447Z,97891.31
2022-11-17T04:05:09.265Z,97883.59
2022-11-17T04:07:40.423Z,97884.59
2022-11-17T04:10:11.581Z,97875.91
2022-11-17T04:12:57.465Z,97878.69
2022-11-17T04:15:42.783Z,97879.53
2022-11-17T04:18:13.133Z,97881.31
2022-11-17T04:20:41.553Z,97879.88
2022-11-17T04:23:12.373Z,97885.13
2022-11-17T04:26:00.125Z,97898.03
2022-11-17T04:28:38.923Z,97888.53
2022-11-17T04:31:10.237Z,97886.88
2022-11-17T04:33:41.913Z,97882.00
2022-11-17T04:36:11.491Z,97887.06
2022-11-17T04:38:44.154Z,97883.16
2022-11-17T04:41:31.524Z,97891.84
2022-11-17T04:44:00.873Z,97889.38
2022-11-17T04:46:30.823Z,97899.03
2022-11-17T04:49:01.584Z,97905.09
2022-11-17T04:51:31.163Z,97908.69
2022-11-17T04:54:00.124Z,97904.59
2022-11-17T04:56:29.553Z,97906.25
2022-11-17T04:58:58.395Z,97907.41
2022-11-17T05:01:27.903Z,97906.75
2022-11-17T05:03:57.944Z,97910.34
2022-11-17T05:06:30.103Z,97913.59
2022-11-17T05:08:58.820Z,97908.69
2022-11-17T05:11:46.895Z,97910.34
2022-11-17T05:14:18.333Z,97906.09
2022-11-17T05:17:09.064Z,97914.94
2022-11-17T05:19:40.534Z,97916.88
2022-11-17T05:22:25.464Z,97916.06
2022-11-17T05:24:54.674Z,97926.88
2022-11-17T05:27:24.224Z,97920.03
2022-11-17T05:29:52.984Z,97928.88
2022-11-17T05:32:21.915Z,97934.94
2022-11-17T05:34:50.454Z,97935.25
2022-11-17T05:37:20.406Z,97930.81
2022-11-17T05:39:48.916Z,97931.97
2022-11-17T05:42:17.465Z,97932.78
2022-11-17T05:44:46.634Z,97934.91
2022-11-17T05:47:15.129Z,97936.72
2022-11-17T05:49:43.597Z,97937.53
2022-11-17T05:52:12.105Z,97940.34
2022-11-17T05:54:42.027Z,97941.97
2022-11-17T05:57:15.475Z,97948.34
2022-11-17T05:59:48.085Z,97945.91
2022-11-17T06:02:20.495Z,97951.13
2022-11-17T06:04:50.915Z,97956.53
2022-11-17T06:07:20.256Z,97955.56
2022-11-17T06:09:51.158Z,97956.53
2022-11-17T06:12:19.595Z,97944.38
2022-11-17T06:14:48.014Z,97949.47
2022-11-17T06:17:22.809Z,97949.81
2022-11-17T06:19:57.263Z,97948.97
2022-11-17T06:22:28.166Z,97946.53
2022-11-17T06:24:58.857Z,97959.75
2022-11-17T06:27:29.695Z,97960.75
2022-11-17T06:30:00.777Z,97961.75
2022-11-17T06:32:29.819Z,97967.94
2022-11-17T06:34:58.656Z,97972.38
2022-11-17T06:37:27.477Z,97975.78
2022-11-17T06:39:57.415Z,97974.16
2022-11-17T06:42:39.615Z,97976.78
2022-11-17T06:45:09.376Z,97983.66
2022-11-17T06:47:38.687Z,97985.63
2022-11-17T06:50:07.786Z,97988.56
2022-11-17T06:52:36.295Z,97982.34
2022-11-17T06:55:06.943Z,97986.78
2022-11-17T06:57:35.443Z,97986.78
2022-11-17T07:00:08.024Z,97988.91
2022-11-17T07:02:37.472Z,97993.13
2022-11-17T07:05:06.592Z,97991.66
2022-11-17T07:07:35.188Z,97989.72
2022-11-17T07:10:03.762Z,97990.84
2022-11-17T07:12:35.155Z,97991.84
2022-11-17T07:15:03.708Z,97986.44
2022-11-17T07:17:33.215Z,97991.03
2022-11-17T07:20:01.773Z,97995.59
2022-11-17T07:22:30.502Z,97992.97
2022-11-17T07:24:58.968Z,97993.97
2022-11-17T07:27:27.573Z,97992.16
2022-11-17T07:29:58.122Z,97992.31
2022-11-17T07:32:26.735Z,97994.91
2022-11-17T07:34:55.372Z,97995.09
2022-11-17T07:37:23.874Z,97999.53
2022-11-17T07:39:52.343Z,98003.59
2022-11-17T07:42:20.933Z,98005.34
2022-11-17T07:44:49.653Z,98008.13
2022-11-17T07:47:19.744Z,98016.59
2022-11-17T07:49:48.282Z,98019.06
2022-11-17T07:52:16.772Z,98018.22
2022-11-17T07:54:45.312Z,98013.66
2022-11-17T07:57:13.926Z,98019.03
2022-11-17T07:59:42.422Z,98020.84
2022-11-17T08:02:11.472Z,98027.81
2022-11-17T08:04:41.455Z,98031.72
2022-11-17T08:07:10.014Z,98030.75
2022-11-17T08:09:38.523Z,98028.81
2022-11-17T08:12:07.582Z,98028.00
2022-11-17T08:14:36.072Z,98036.97
2022-11-17T08:17:04.543Z,98042.34
2022-11-17T08:19:33.132Z,98043.63
2022-11-17T08:22:03.121Z,98053.09
2022-11-17T08:24:31.632Z,98049.69
2022-11-17T08:27:00.277Z,98056.03
2022-11-17T08:29:28.822Z,98056.03
2022-11-17T08:31:57.292Z,98069.41
2022-11-17T08:34:25.824Z,98080.19
2022-11-17T08:36:54.342Z,98079.38
2022-11-17T08:39:24.283Z,98081.84
2022-11-17T08:41:53.443Z,98085.41
2022-11-17T08:44:21.912Z,98089.50
2022-11-17T08:46:50.452Z,98087.53
2022-11-17T08:49:18.982Z,98100.09
2022-11-17T08:51:47.543Z,98095.84
2022-11-17T08:54:16.012Z,98100.09
2022-11-17T08:56:46.708Z,98100.78
2022-11-17T08:59:15.660Z,98102.72
2022-11-17T09:01:44.308Z,98096.34
2022-11-17T09:04:12.895Z,98106.97
2022-11-17T09:06:41.417Z,98105.19
2022-11-17T09:09:09.934Z,98104.19
2022-11-17T09:11:38.500Z,98109.25
2022-11-17T09:14:09.696Z,98111.06
2022-11-17T09:16:38.287Z,98103.91
2022-11-17T09:19:07.087Z,98101.75
2022-11-17T09:21:35.527Z,98104.72
2022-11-17T09:24:04.072Z,98099.34
2022-11-17T09:26:32.737Z,98107.84
2022-11-17T09:29:03.329Z,98110.44
2022-11-17T09:31:33.468Z,98106.19
2022-11-17T09:34:05.273Z,98116.81
2022-11-17T09:36:35.258Z,98119.97
2022-11-17T09:39:03.768Z,98123.38
2022-11-17T09:41:37.497Z,98128.44
2022-11-17T09:44:17.257Z,98121.72
2022-11-17T09:46:58.857Z,98122.72
2022-11-17T09:49:38.831Z,98132.75
2022-11-17T09:52:15.656Z,98139.69
2022-11-17T09:54:47.137Z,98134.00
2022-11-17T09:57:22.970Z,98129.72
2022-11-17T09:59:53.847Z,98133.03
2022-11-17T10:02:23.929Z,98145.13
2022-11-17T10:04:52.531Z,98147.41
2022-11-17T10:07:22.328Z,98144.81
2022-11-17T10:09:54.038Z,98140.25
2022-11-17T10:12:26.316Z,98142.56
2022-11-17T10:14:56.217Z,98143.38
2022-11-17T10:17:26.137Z,98140.44
2022-11-17T10:19:54.575Z,98142.56
2022-11-17T10:22:36.286Z,98147.38
2022-11-17T10:25:05.049Z,98150.63
2022-11-17T10:27:34.797Z,98148.53
2022-11-17T10:30:07.300Z,98155.41
2022-11-17T10:32:43.948Z,98152.16
2022-11-17T10:35:17.353Z,98154.97
2022-11-17T10:37:53.828Z,98160.03
2022-11-17T10:40:25.945Z,98164.81
2022-11-17T10:43:22.258Z,98168.56
2022-11-17T10:45:52.967Z,98169.88
2022-11-17T10:48:27.818Z,98169.88
2022-11-17T10:50:58.842Z,98173.97
2022-11-17T10:53:46.906Z,98184.16
2022-11-17T10:56:19.188Z,98184.31
2022-11-17T10:59:01.080Z,98186.13
2022-11-17T11:01:31.812Z,98185.94
2022-11-17T11:04:02.018Z,98176.16
2022-11-17T11:06:32.107Z,98180.56
2022-11-17T11:09:03.339Z,98174.50
2022-11-17T11:11:42.497Z,98177.63
2022-11-17T11:14:19.680Z,98175.53
2022-11-17T11:16:50.755Z,98177.00
2022-11-17T11:19:21.818Z,98175.53
2022-11-17T11:22:09.318Z,98174.81
2022-11-17T11:24:46.548Z,98184.16
2022-11-17T11:27:39.078Z,98182.78
2022-11-17T11:30:12.138Z,98181.97
2022-11-17T11:32:52.408Z,98184.75
2022-11-17T11:35:34.888Z,98177.53
2022-11-17T11:38:16.367Z,98177.53
2022-11-17T11:40:51.239Z,98172.47
2022-11-17T11:43:31.446Z,98188.88
2022-11-17T11:46:09.788Z,98181.38
2022-11-17T11:48:41.525Z,98179.06
2022-11-17T11:51:16.579Z,98174.19
2022-11-17T11:53:51.387Z,98177.44
2022-11-17T11:56:23.631Z,98178.47
2022-11-17T11:58:58.707Z,98179.63
2022-11-17T12:01:29.209Z,98188.13
2022-11-17T12:04:14.417Z,98188.31
2022-11-17T12:06:54.049Z,98191.09
2022-11-17T12:09:46.119Z,98190.28
2022-11-17T12:12:17.848Z,98192.56
2022-11-17T12:15:09.157Z,98193.56
2022-11-17T12:17:37.946Z,98193.06
2022-11-17T12:20:27.828Z,98190.44
2022-11-17T12:23:08.797Z,98187.84
2022-11-17T12:25:52.278Z,98189.00
2022-11-17T12:28:31.637Z,98186.22
2022-11-17T12:31:06.597Z,98190.00
2022-11-17T12:34:12.725Z,98192.31
2022-11-17T12:36:41.697Z,98184.06
2022-11-17T12:40:04.161Z,98183.09
2022-11-17T12:42:33.789Z,98182.44
2022-11-17T12:45:12.615Z,98181.97
2022-11-17T12:47:48.119Z,98184.06
2022-11-17T12:50:47.853Z,98185.56
2022-11-17T12:53:26.356Z,98180.47
2022-11-17T12:56:27.107Z,98185.22
2022-11-17T12:59:05.067Z,98180.47
2022-11-17T13:01:45.446Z,98182.41
2022-11-17T13:04:16.924Z,98177.84
2022-11-17T13:07:01.352Z,98177.03
2022-11-17T13:09:31.327Z,98173.72
2022-11-17T13:12:06.338Z,98172.75
2022-11-17T13:14:36.838Z,98172.25
2022-11-17T13:17:05.818Z,98173.06
2022-11-17T13:19:37.727Z,98174.69
2022-11-17T13:22:15.111Z,98186.72
2022-11-17T13:24:46.867Z,98184.09
2022-11-17T13:27:25.887Z,98191.63
2022-11-17T13:30:12.909Z,98182.91
2022-11-17T13:32:41.868Z,98189.34
2022-11-17T13:35:21.977Z,98195.22
2022-11-17T13:38:06.486Z,98198.66
2022-11-17T13:40:37.397Z,98204.91
2022-11-17T13:43:12.437Z,98206.19
2022-11-17T13:45:41.017Z,98207.16
2022-11-17T13:48:31.887Z,98206.19
2022-11-17T13:51:25.857Z,98212.56
2022-11-17T13:53:57.048Z,98219.94
2022-11-17T13:56:30.586Z,98218.13
2022-11-17T13:59:02.426Z,98216.66
2022-11-17T14:01:33.087Z,98224.06
2022-11-17T14:04:20.029Z,98214.69
2022-11-17T14:06:57.738Z,98215.50
2022-11-17T14:09:27.037Z,98214.69
2022-11-17T14:11:55.617Z,98227.50
2022-11-17T14:14:33.009Z,98229.13
2022-11-17T14:17:13.808Z,98224.38
2022-11-17T14:19:42.377Z,98230.47
2022-11-17T14:22:31.508Z,98236.06
2022-11-17T14:25:00.719Z,98239.34
2022-11-17T14:27:41.137Z,98253.28
2022-11-17T14:30:16.046Z,98249.19
2022-11-17T14:32:44.457Z,98250.84
2022-11-17T14:35:15.670Z,98249.00
2022-11-17T14:37:44.678Z,98256.72
2022-11-17T14:40:17.899Z,98256.06
2022-11-17T14:42:46.388Z,98256.72
2022-11-17T14:45:18.147Z,98260.00
2022-11-17T14:47:47.736Z,98266.69
2022-11-17T14:50:18.172Z,98269.78
2022-11-17T14:52:47.347Z,98275.38
2022-11-17T14:55:16.538Z,98280.28
2022-11-17T14:57:45.247Z,98288.97
2022-11-17T15:00:20.486Z,98277.38
2022-11-17T15:02:49.566Z,98277.66
2022-11-17T15:05:18.117Z,98289.13
2022-11-17T15:07:46.548Z,98292.38
2022-11-17T15:10:15.657Z,98286.31
2022-11-17T15:12:44.096Z,98299.75
2022-11-17T15:15:12.760Z,98301.84
2022-11-17T15:17:42.696Z,98301.50
2022-11-17T15:20:11.998Z,98298.53
2022-11-17T15:22:40.446Z,98306.22
2022-11-17T15:25:10.196Z,98304.59
2022-11-17T15:27:38.617Z,98304.91
2022-11-17T15:30:08.406Z,98306.69
2022-11-17T15:32:38.126Z,98307.97
2022-11-17T15:35:08.776Z,98312.91
2022-11-17T15:37:37.256Z,98314.88
2022-11-17T15:40:06.627Z,98310.44
2022-11-17T15:42:35.007Z,98313.06
2022-11-17T15:45:03.568Z,98314.03
2022-11-17T15:47:32.079Z,98304.84
2022-11-17T15:50:00.539Z,98303.16
2022-11-17T15:52:56.652Z,98310.22
2022-11-17T15:55:18.987Z,98305.91
2022-11-17T15:57:47.429Z,98312.94
2022-11-17T16:00:18.036Z,98310.13
2022-11-17T16:02:46.597Z,98315.81
2022-11-17T16:05:15.189Z,98314.88
2022-11-17T16:10:14.346Z,98319.44
2022-11-17T16:12:42.708Z,98324.28
2022-11-17T16:15:11.448Z,98330.78
2022-11-17T16:17:39.958Z,98336.81
2022-11-17T16:20:09.993Z,98331.09
2022-11-17T16:22:38.458Z,98332.69
2022-11-17T16:25:10.637Z,98337.31
2022-11-17T16:27:39.097Z,98340.16
2022-11-17T16:30:08.457Z,98335.16
2022-11-17T16:32:36.916Z,98344.47
2022-11-17T16:35:05.727Z,98349.19
2022-11-17T16:37:34.449Z,98351.13
2022-11-17T16:40:04.707Z,98354.41
2022-11-17T16:42:34.609Z,98358.97
2022-11-17T16:45:03.057Z,98359.41
2022-11-17T16:47:31.507Z,98360.25
2022-11-17T16:49:59.977Z,98363.00
2022-11-17T16:52:28.417Z,98375.56
2022-11-17T16:55:01.769Z,98366.22
2022-11-17T16:57:34.439Z,98373.03
2022-11-17T17:00:02.848Z,98373.47
2022-11-17T17:02:32.834Z,98376.28
2022-11-17T17:05:01.323Z,98372.66
2022-11-17T17:07:30.010Z,98382.53
2022-11-17T17:09:58.509Z,98379.91
2022-11-17T17:12:27.057Z,98384.47
2022-11-17T17:14:56.928Z,98387.38
2022-11-17T17:17:25.367Z,98385.53
2022-11-17T17:19:54.077Z,98403.78
2022-11-17T17:22:23.779Z,98390.09
2022-11-17T17:24:52.251Z,98398.09
2022-11-17T17:27:20.758Z,98399.66
2022-11-17T17:29:49.198Z,98401.47
2022-11-17T17:32:19.169Z,98400.13
2022-11-17T17:34:47.687Z,98404.97
2022-11-17T17:37:17.027Z,98403.34
2022-11-17T17:39:45.444Z,98416.44
2022-11-17T17:42:14.386Z,98414.75
2022-11-17T17:44:42.808Z,98417.25
2022-11-17T17:47:11.233Z,98409.41
2022-11-17T17:49:41.128Z,98418.75
2022-11-17T17:52:13.706Z,98424.94
2022-11-17T17:54:42.478Z,98429.75
2022-11-17T17:57:11.068Z,98433.47
2022-11-17T17:59:39.467Z,98437.06
2022-11-17T18:02:08.127Z,98440.50
2022-11-17T18:04:36.576Z,98444.44
2022-11-17T18:07:06.651Z,98449.97
2022-11-17T18:09:35.127Z,98452.97
2022-11-17T18:12:03.568Z,98446.34
2022-11-17T18:14:32.137Z,98448.78
2022-11-17T18:17:00.600Z,98451.56
2022-11-17T18:19:33.019Z,98468.09
2022-11-17T18:22:01.948Z,98469.59
2022-11-17T18:24:31.797Z,98469.72
2022-11-17T18:27:00.258Z,98469.88
2022-11-17T18:29:28.807Z,98476.91
2022-11-17T18:31:57.218Z,98485.72
2022-11-17T18:34:26.719Z,98481.47
2022-11-17T18:36:57.015Z,98488.50
2022-11-17T18:39:25.678Z,98495.09
2022-11-17T18:41:56.348Z,98497.03
2022-11-17T18:44:24.777Z,98496.19
2022-11-17T18:46:55.016Z,98491.13
2022-11-17T18:49:26.747Z,98498.97
2022-11-17T18:51:55.177Z,98493.75
2022-11-17T18:54:23.584Z,98505.03
2022-11-17T18:56:51.997Z,98506.13
2022-11-17T18:59:22.068Z,98503.38
2022-11-17T19:01:50.771Z,98513.03
2022-11-17T19:04:19.226Z,98518.94
2022-11-17T19:06:47.670Z,98516.53
2022-11-17T19:09:16.439Z,98517.53
2022-11-17T19:11:45.177Z,98520.13
2022-11-17T19:14:13.777Z,98517.41
2022-11-17T19:16:45.136Z,98521.59
2022-11-17T19:19:15.342Z,98524.13
2022-11-17T19:21:44.857Z,98528.69
2022-11-17T19:24:13.628Z,98527.34
2022-11-17T19:26:43.110Z,98537.28
2022-11-17T19:29:17.127Z,98529.44
2022-11-17T19:31:48.648Z,98531.75
2022-11-17T19:34:17.767Z,98538.88
2022-11-17T19:36:46.417Z,98548.91
2022-11-17T19:39:17.216Z,98555.06
2022-11-17T19:41:47.878Z,98555.97
2022-11-17T19:44:16.478Z,98548.94
2022-11-17T19:46:46.627Z,98557.94
2022-11-17T19:49:15.561Z,98562.03
2022-11-17T19:51:44.467Z,98560.09
2022-11-17T19:54:15.007Z,98558.97
2022-11-17T19:56:43.551Z,98560.63
2022-11-17T19:59:15.952Z,98565.16
2022-11-17T20:01:45.347Z,98567.13
2022-11-17T20:04:15.388Z,98571.78
2022-11-17T20:06:44.105Z,98574.41
2022-11-17T20:09:15.240Z,98569.16
2022-11-17T20:11:44.553Z,98574.91
2022-11-17T20:14:14.695Z,98583.16
2022-11-17T20:16:43.196Z,98579.03
2022-11-17T20:19:14.025Z,98580.03
2022-11-17T20:21:44.253Z,98578.53
2022-11-17T20:24:12.851Z,98582.25
2022-11-17T20:26:43.387Z,98582.69
2022-11-17T20:29:13.281Z,98585.47
2022-11-17T20:31:46.220Z,98593.03
2022-11-17T20:34:21.247Z,98596.09
2022-11-17T20:36:53.036Z,98596.50
2022-11-17T20:39:22.317Z,98593.72
2022-11-17T20:41:52.563Z,98598.50
2022-11-17T20:44:27.423Z,98602.47
2022-11-17T20:46:56.914Z,98615.06
2022-11-17T20:49:28.247Z,98620.44
2022-11-17T20:52:00.157Z,98616.84
2022-11-17T20:54:30.442Z,98628.00
2022-11-17T20:57:01.613Z,98626.22
2022-11-17T20:59:32.723Z,98628.00
2022-11-17T21:02:01.947Z,98629.38
2022-11-17T21:04:30.568Z,98627.69
2022-11-17T21:07:01.488Z,98627.41
2022-11-17T21:09:30.076Z,98624.19
2022-11-17T21:12:02.577Z,98628.59
2022-11-17T21:14:32.741Z,98635.72
2022-11-17T21:17:01.778Z,98639.81
2022-11-17T21:19:32.340Z,98643.66
2022-11-17T21:22:04.488Z,98652.56
2022-11-17T21:24:33.987Z,98651.53
2022-11-17T21:27:02.548Z,98655.94
2022-11-17T21:29:32.088Z,98662.59
2022-11-17T21:32:00.677Z,98664.03
2022-11-17T21:34:31.087Z,98659.63
2022-11-17T21:36:59.647Z,98663.19
2022-11-17T21:39:29.688Z,98662.53
2022-11-17T21:42:00.228Z,98660.75
2022-11-17T21:44:28.991Z,98663.50
2022-11-17T21:46:57.452Z,98654.13
2022-11-17T21:49:26.047Z,98663.78
2022-11-17T21:51:54.612Z,98668.75
2022-11-17T21:54:23.402Z,98675.66
2022-11-17T21:56:53.446Z,98676.69
2022-11-17T21:59:21.970Z,98680.31
2022-11-17T22:01:50.479Z,98682.38
2022-11-17T22:04:19.549Z,98680.94
2022-11-17T22:06:48.219Z,98686.50
2022-11-17T22:09:18.121Z,98692.84
2022-11-17T22:11:46.988Z,98690.91
2022-11-17T22:14:19.448Z,98692.72
2022-11-17T22:16:49.293Z,98693.53
2022-11-17T22:19:19.473Z,98693.03
2022-11-17T22:21:50.997Z,98701.88
2022-11-17T22:24:19.898Z,98708.06
2022-11-17T22:26:48.588Z,98702.81
2022-11-17T22:29:20.738Z,98707.09
2022-11-17T22:31:50.481Z,98703.81
2022-11-17T22:34:19.680Z,98713.47
2022-11-17T22:36:48.396Z,98705.06
2022-11-17T22:39:17.857Z,98710.31
2022-11-17T22:41:46.718Z,98709.84
2022-11-17T22:44:15.688Z,98717.44
2022-11-17T22:46:46.147Z,98714.38
2022-11-17T22:49:14.833Z,98708.16
2022-11-17T22:52:01.827Z,98722.59
2022-11-17T22:54:30.556Z,98720.97
2022-11-17T22:56:59.696Z,98736.69
2022-11-17T22:59:29.752Z,98726.72
2022-11-17T23:01:59.758Z,98726.88
2022-11-17T23:04:28.867Z,98733.78
2022-11-17T23:06:57.882Z,98731.28
2022-11-17T23:09:26.738Z,98737.34
2022-11-17T23:11:55.907Z,98737.06
2022-11-17T23:14:25.057Z,98737.22
2022-11-17T23:16:53.950Z,98744.91
2022-11-17T23:19:23.997Z,98749.22
2022-11-17T23:21:53.123Z,98734.59
2022-11-17T23:24:21.699Z,98739.69
2022-11-17T23:26:50.627Z,98742.84
2022-11-17T23:29:19.810Z,98747.13
2022-11-17T23:31:48.512Z,98747.25
2022-11-17T23:34:17.308Z,98750.56
2022-11-17T23:36:47.478Z,98743.81
2022-11-17T23:39:16.232Z,98749.88
2022-11-17T23:41:45.200Z,98751.53
2022-11-17T23:44:14.123Z,98751.38
2022-11-17T23:46:43.276Z,98763.66
2022-11-17T23:49:11.727Z,98763.97
2022-11-17T23:51:40.378Z,98769.72
2022-11-17T23:54:13.357Z,98775.13
2022-11-17T23:56:43.347Z,98779.28
2022-11-17T23:59:12.450Z,98784.50
